createdAt,value
2017-12-11T00:00:09.201Z,97721
2017-12-11T00:02:37.440Z,97728
2017-12-11T00:05:05.669Z,97740
2017-12-11T00:07:34.012Z,97731
2017-12-11T00:10:02.402Z,97733
2017-12-11T00:12:30.641Z,97741
2017-12-11T00:14:58.905Z,97731
2017-12-11T00:17:27.128Z,97741
2017-12-11T00:19:55.351Z,97754
2017-12-11T00:22:41.498Z,97747
2017-12-11T00:25:09.735Z,97738
2017-12-11T00:27:38.656Z,97740
2017-12-11T00:30:06.959Z,97729
2017-12-11T00:32:35.951Z,97727
2017-12-11T00:35:05.494Z,97728
2017-12-11T00:37:33.773Z,97731
2017-12-11T00:40:01.995Z,97740
2017-12-11T00:42:30.412Z,97745
2017-12-11T00:44:58.674Z,97745
2017-12-11T00:47:26.960Z,97740
2017-12-11T00:49:56.213Z,97749
2017-12-11T00:52:24.491Z,97758
2017-12-11T00:54:52.784Z,97748
2017-12-11T00:57:21.783Z,97751
2017-12-11T00:59:51.161Z,97743
2017-12-11T01:02:19.358Z,97748
2017-12-11T01:04:48.364Z,97739
2017-12-11T01:07:16.644Z,97759
2017-12-11T01:09:44.926Z,97758
2017-12-11T01:12:13.154Z,97766
2017-12-11T01:14:41.452Z,97775
2017-12-11T01:17:10.447Z,97779
2017-12-11T01:19:39.457Z,97772
2017-12-11T01:22:07.796Z,97783
2017-12-11T01:24:36.033Z,97786
2017-12-11T01:27:04.260Z,97776
2017-12-11T01:29:32.562Z,97775
2017-12-11T01:32:00.801Z,97772
2017-12-11T01:34:29.062Z,97754
2017-12-11T01:36:57.389Z,97754
2017-12-11T01:39:25.631Z,97749
2017-12-11T01:41:54.629Z,97752
2017-12-11T01:44:23.680Z,97742
2017-12-11T01:46:51.916Z,97744
2017-12-11T01:49:20.157Z,97728
2017-12-11T01:51:48.450Z,97731
2017-12-11T01:54:17.604Z,97727
2017-12-11T01:56:45.847Z,97713
2017-12-11T01:59:14.783Z,97714
2017-12-11T02:01:43.165Z,97708
2017-12-11T02:04:11.478Z,97719
2017-12-11T02:06:39.820Z,97697
2017-12-11T02:09:08.054Z,97708
2017-12-11T02:11:36.310Z,97709
2017-12-11T02:14:04.927Z,97701
2017-12-11T02:16:33.199Z,97684
2017-12-11T02:19:01.427Z,97674
2017-12-11T02:21:30.550Z,97674
2017-12-11T02:23:58.800Z,97673
2017-12-11T02:26:27.866Z,97680
2017-12-11T02:28:56.208Z,97688
2017-12-11T02:31:24.439Z,97699
2017-12-11T02:33:52.672Z,97684
2017-12-11T02:36:20.984Z,97690
2017-12-11T02:38:49.209Z,97690
2017-12-11T02:41:17.493Z,97701
2017-12-11T02:43:45.896Z,97701
2017-12-11T02:46:14.122Z,97709
2017-12-11T02:48:42.427Z,97715
2017-12-11T02:51:10.707Z,97712
2017-12-11T02:53:38.987Z,97725
2017-12-11T02:56:07.224Z,97732
2017-12-11T02:58:35.493Z,97715
2017-12-11T03:01:03.720Z,97710
2017-12-11T03:03:31.953Z,97694
2017-12-11T03:06:00.224Z,97701
2017-12-11T03:08:28.479Z,97693
2017-12-11T03:10:56.703Z,97697
2017-12-11T03:13:25.001Z,97707
2017-12-11T03:15:53.223Z,97714
2017-12-11T03:18:21.463Z,97710
2017-12-11T03:20:49.737Z,97713
2017-12-11T03:23:17.962Z,97718
2017-12-11T03:25:46.330Z,97727
2017-12-11T03:28:14.592Z,97724
2017-12-11T03:30:43.566Z,97724
2017-12-11T03:33:12.573Z,97754
2017-12-11T03:35:41.599Z,97765
2017-12-11T03:38:09.829Z,97767
2017-12-11T03:40:38.052Z,97762
2017-12-11T03:43:06.338Z,97760
2017-12-11T03:45:34.576Z,97753
2017-12-11T03:48:02.802Z,97757
2017-12-11T03:50:31.061Z,97754
2017-12-11T03:52:59.302Z,97758
2017-12-11T03:55:27.522Z,97740
2017-12-11T03:57:55.794Z,97744
2017-12-11T04:00:24.046Z,97731
2017-12-11T04:02:52.269Z,97724
2017-12-11T04:05:20.534Z,97730
2017-12-11T04:07:48.761Z,97729
2017-12-11T04:10:16.992Z,97723
2017-12-11T04:12:45.261Z,97703
2017-12-11T04:15:13.538Z,97710
2017-12-11T04:17:41.970Z,97708
2017-12-11T04:20:10.247Z,97712
2017-12-11T04:22:38.506Z,97725
2017-12-11T04:25:06.751Z,97718
2017-12-11T04:27:35.026Z,97721
2017-12-11T04:30:04.582Z,97725
2017-12-11T04:32:32.802Z,97736
2017-12-11T04:35:01.080Z,97734
2017-12-11T04:37:29.306Z,97740
2017-12-11T04:39:57.583Z,97733
2017-12-11T04:42:25.858Z,97740
2017-12-11T04:44:54.105Z,97724
2017-12-11T04:47:23.086Z,97733
2017-12-11T04:49:51.351Z,97732
2017-12-11T04:52:19.594Z,97745
2017-12-11T04:54:47.842Z,97757
2017-12-11T04:57:16.099Z,97773
2017-12-11T04:59:45.109Z,97775
2017-12-11T05:02:13.329Z,97784
2017-12-11T05:04:41.586Z,97783
2017-12-11T05:07:09.825Z,97787
2017-12-11T05:09:38.103Z,97790
2017-12-11T05:12:06.380Z,97806
2017-12-11T05:14:35.363Z,97813
2017-12-11T05:17:03.595Z,97822
2017-12-11T05:19:31.862Z,97822
2017-12-11T05:22:00.080Z,97834
2017-12-11T05:24:29.123Z,97835
2017-12-11T05:26:57.433Z,97839
2017-12-11T05:29:25.714Z,97860
2017-12-11T05:31:53.932Z,97865
2017-12-11T05:34:22.203Z,97869
2017-12-11T05:36:50.469Z,97880
2017-12-11T05:39:18.766Z,97882
2017-12-11T05:41:47.135Z,97891
2017-12-11T05:44:15.341Z,97897
2017-12-11T05:46:43.565Z,97903
2017-12-11T05:49:11.856Z,97897
2017-12-11T05:51:40.199Z,97892
2017-12-11T05:54:09.211Z,97895
2017-12-11T05:56:37.495Z,97893
2017-12-11T05:59:05.768Z,97898
2017-12-11T06:01:34.759Z,97909
2017-12-11T06:04:03.051Z,97919
2017-12-11T06:06:31.305Z,97916
2017-12-11T06:08:59.556Z,97920
2017-12-11T06:11:28.592Z,97932
2017-12-11T06:13:56.866Z,97918
2017-12-11T06:16:25.079Z,97926
2017-12-11T06:18:53.352Z,97918
2017-12-11T06:21:21.606Z,97914
2017-12-11T06:23:49.862Z,97903
2017-12-11T06:26:18.145Z,97902
2017-12-11T06:28:46.405Z,97900
2017-12-11T06:31:14.645Z,97891
2017-12-11T06:33:42.932Z,97899
2017-12-11T06:36:11.186Z,97907
2017-12-11T06:38:39.409Z,97913
2017-12-11T06:41:07.760Z,97914
2017-12-11T06:43:36.043Z,97929
2017-12-11T06:46:04.315Z,97934
2017-12-11T06:48:32.598Z,97942
2017-12-11T06:51:00.885Z,97945
2017-12-11T06:53:29.221Z,97942
2017-12-11T06:55:57.501Z,97935
2017-12-11T06:58:25.766Z,97928
2017-12-11T07:00:54.077Z,97924
2017-12-11T07:03:22.432Z,97921
2017-12-11T07:05:50.683Z,97921
2017-12-11T07:08:18.970Z,97939
2017-12-11T07:10:47.258Z,97941
2017-12-11T07:13:15.506Z,97938
2017-12-11T07:15:43.780Z,97930
2017-12-11T07:18:12.040Z,97944
2017-12-11T07:20:40.255Z,97945
2017-12-11T07:23:08.582Z,97954
2017-12-11T07:25:36.848Z,97961
2017-12-11T07:28:05.087Z,97958
2017-12-11T07:30:33.306Z,97973
2017-12-11T07:33:01.559Z,97977
2017-12-11T07:35:30.549Z,97978
2017-12-11T07:37:59.550Z,97981
2017-12-11T07:40:27.831Z,97980
2017-12-11T07:42:56.830Z,97979
2017-12-11T07:45:25.073Z,97978
2017-12-11T07:47:53.476Z,97983
2017-12-11T07:50:21.762Z,97986
2017-12-11T07:52:49.997Z,97984
2017-12-11T07:55:18.301Z,97994
2017-12-11T07:57:46.533Z,97989
2017-12-11T08:00:14.760Z,97993
2017-12-11T08:02:43.788Z,97976
2017-12-11T08:05:12.049Z,97989
2017-12-11T08:07:40.297Z,97997
2017-12-11T08:10:08.615Z,97991
2017-12-11T08:12:36.871Z,97993
2017-12-11T08:15:05.117Z,97985
2017-12-11T08:17:34.801Z,97990
2017-12-11T08:20:03.073Z,98013
2017-12-11T08:22:31.367Z,97998
2017-12-11T08:25:00.641Z,98009
2017-12-11T08:27:29.638Z,98007
2017-12-11T08:29:57.903Z,98022
2017-12-11T08:32:26.162Z,98013
2017-12-11T08:34:54.885Z,98034
2017-12-11T08:37:23.168Z,98024
2017-12-11T08:39:51.553Z,98027
2017-12-11T08:42:23.778Z,98023
2017-12-11T08:48:06.418Z,98006
2017-12-11T08:50:34.631Z,98007
2017-12-11T08:53:02.832Z,98003
2017-12-11T08:55:31.118Z,98008
2017-12-11T08:57:59.330Z,98017
2017-12-11T09:00:27.547Z,98011
2017-12-11T09:02:56.725Z,98013
2017-12-11T09:05:24.949Z,98014
2017-12-11T09:07:53.168Z,98022
2017-12-11T09:10:21.461Z,98023
2017-12-11T09:12:50.451Z,98024
2017-12-11T09:15:19.505Z,98021
2017-12-11T09:17:47.806Z,98024
2017-12-11T09:20:16.024Z,98008
2017-12-11T09:22:44.251Z,98017
2017-12-11T09:28:12.114Z,98015
2017-12-11T09:30:40.440Z,98012
2017-12-11T09:33:21.066Z,98004
2017-12-11T09:35:49.298Z,98000
2017-12-11T09:38:17.527Z,98011
2017-12-11T09:40:45.873Z,98006
2017-12-11T09:43:14.112Z,97993
2017-12-11T10:27:32.332Z,97967
2017-12-11T10:30:00.723Z,97979
2017-12-11T10:32:30.096Z,97986
2017-12-11T10:34:58.452Z,97982
2017-12-11T10:37:26.693Z,97986
2017-12-11T10:39:54.990Z,97983
2017-12-11T10:42:23.456Z,97987
2017-12-11T10:44:51.803Z,97982
2017-12-11T10:47:20.028Z,97966
2017-12-11T10:49:48.359Z,97946
2017-12-11T10:52:16.648Z,97930
2017-12-11T10:54:44.875Z,97925
2017-12-11T10:57:14.024Z,97926
2017-12-11T10:59:42.249Z,97928
2017-12-11T11:02:11.269Z,97925
2017-12-11T11:04:39.554Z,97911
2017-12-11T11:07:07.871Z,97920
2017-12-11T11:09:36.150Z,97924
2017-12-11T11:12:04.428Z,97942
2017-12-11T11:14:32.679Z,97920
2017-12-11T11:17:00.891Z,97920
2017-12-11T11:19:30.042Z,97921
2017-12-11T11:21:58.310Z,97913
2017-12-11T11:24:26.548Z,97909
2017-12-11T11:26:55.608Z,97901
2017-12-11T11:29:23.840Z,97924
2017-12-11T11:31:52.071Z,97920
2017-12-11T11:34:20.423Z,97923
2017-12-11T11:36:48.671Z,97927
2017-12-11T11:39:16.925Z,97926
2017-12-11T11:41:45.220Z,97936
2017-12-11T11:44:13.522Z,97934
2017-12-11T11:46:41.776Z,97940
2017-12-11T11:49:10.031Z,97938
2017-12-11T11:51:38.434Z,97944
2017-12-11T11:54:06.686Z,97935
2017-12-11T11:56:35.674Z,97957
2017-12-11T11:59:04.717Z,97957
2017-12-11T12:01:32.975Z,97957
2017-12-11T12:04:01.216Z,97945
2017-12-11T12:06:29.529Z,97945
2017-12-11T12:08:57.763Z,97929
2017-12-11T12:11:26.774Z,97911
2017-12-11T12:13:55.156Z,97912
2017-12-11T12:16:23.384Z,97904
2017-12-11T12:18:51.630Z,97897
2017-12-11T12:21:20.074Z,97892
2017-12-11T12:23:48.300Z,97886
2017-12-11T12:26:16.567Z,97867
2017-12-11T12:28:44.853Z,97869
2017-12-11T12:31:13.077Z,97870
2017-12-11T12:33:41.355Z,97861
2017-12-11T12:36:09.618Z,97867
2017-12-11T12:38:38.616Z,97867
2017-12-11T12:41:06.906Z,97864
2017-12-11T12:43:35.187Z,97861
2017-12-11T12:46:03.438Z,97859
2017-12-11T12:48:31.774Z,97864
2017-12-11T12:51:00.005Z,97868
2017-12-11T12:53:28.257Z,97864
2017-12-11T12:55:57.823Z,97868
2017-12-11T12:58:26.203Z,97869
2017-12-11T13:00:54.431Z,97859
2017-12-11T13:03:22.732Z,97845
2017-12-11T13:05:51.082Z,97849
2017-12-11T13:08:19.384Z,97856
2017-12-11T13:10:47.634Z,97856
2017-12-11T13:13:15.891Z,97853
2017-12-11T13:15:44.238Z,97859
2017-12-11T13:18:12.508Z,97868
2017-12-11T13:20:40.756Z,97871
2017-12-11T13:23:09.058Z,97870
2017-12-11T13:25:37.307Z,97871
2017-12-11T13:28:05.533Z,97870
2017-12-11T13:30:34.800Z,97865
2017-12-11T13:33:03.069Z,97883
2017-12-11T13:35:31.299Z,97876
2017-12-11T13:38:00.361Z,97876
2017-12-11T13:40:28.613Z,97868
2017-12-11T13:42:56.864Z,97869
2017-12-11T13:45:25.971Z,97866
2017-12-11T13:47:54.235Z,97866
2017-12-11T13:50:23.328Z,97878
2017-12-11T13:52:51.913Z,97882
2017-12-11T13:55:20.154Z,97878
2017-12-11T13:57:49.183Z,97873
2017-12-11T14:00:17.481Z,97882
2017-12-11T14:02:45.783Z,97882
2017-12-11T14:05:14.031Z,97878
2017-12-11T14:07:42.309Z,97874
2017-12-11T14:10:10.626Z,97865
2017-12-11T14:12:38.840Z,97861
2017-12-11T14:15:07.054Z,97856
2017-12-11T14:17:35.409Z,97852
2017-12-11T14:20:03.659Z,97835
2017-12-11T14:22:31.876Z,97829
2017-12-11T14:25:00.224Z,97835
2017-12-11T14:27:28.492Z,97832
2017-12-11T14:29:56.721Z,97832
2017-12-11T14:32:25.189Z,97843
2017-12-11T14:34:54.221Z,97834
2017-12-11T14:37:23.253Z,97827
2017-12-11T14:39:51.552Z,97823
2017-12-11T14:42:19.811Z,97816
2017-12-11T14:44:48.156Z,97822
2017-12-11T14:47:16.534Z,97825
2017-12-11T14:49:45.545Z,97802
2017-12-11T14:52:13.812Z,97802
2017-12-11T14:54:42.124Z,97801
2017-12-11T14:57:10.374Z,97787
2017-12-11T14:59:38.628Z,97802
2017-12-11T15:02:07.720Z,97800
2017-12-11T15:04:36.745Z,97796
2017-12-11T15:07:05.015Z,97786
2017-12-11T15:09:33.374Z,97789
2017-12-11T15:12:01.605Z,97785
2017-12-11T15:14:29.896Z,97779
2017-12-11T15:16:58.219Z,97782
2017-12-11T15:19:26.513Z,97775
2017-12-11T15:21:54.756Z,97774
2017-12-11T15:24:23.068Z,97781
2017-12-11T15:26:51.464Z,97778
2017-12-11T15:29:19.694Z,97773
2017-12-11T15:31:48.045Z,97777
2017-12-11T15:34:17.549Z,97769
2017-12-11T15:36:46.607Z,97768
2017-12-11T15:39:15.019Z,97772
2017-12-11T15:41:43.334Z,97762
2017-12-11T15:44:11.559Z,97768
2017-12-11T15:46:39.895Z,97753
2017-12-11T15:49:08.161Z,97754
2017-12-11T15:51:36.445Z,97753
2017-12-11T15:54:04.776Z,97741
2017-12-11T15:56:33.003Z,97730
2017-12-11T15:59:01.240Z,97721
2017-12-11T16:01:30.437Z,97713
2017-12-11T16:03:58.733Z,97709
2017-12-11T16:06:27.038Z,97707
2017-12-11T16:08:55.371Z,97708
2017-12-11T16:11:25.115Z,97698
2017-12-11T16:13:53.705Z,97690
2017-12-11T16:16:21.994Z,97711
2017-12-11T16:18:50.363Z,97709
2017-12-11T16:21:18.687Z,97725
2017-12-11T16:23:46.973Z,97698
2017-12-11T16:26:15.259Z,97709
2017-12-11T16:28:43.695Z,97711
2017-12-11T16:31:11.924Z,97701
2017-12-11T16:33:40.403Z,97700
2017-12-11T16:36:08.883Z,97698
2017-12-11T16:38:37.144Z,97694
2017-12-11T16:41:05.380Z,97687
2017-12-11T16:43:33.713Z,97692
2017-12-11T16:46:02.000Z,97679
2017-12-11T16:48:30.243Z,97678
2017-12-11T16:50:59.460Z,97692
2017-12-11T16:53:27.709Z,97686
2017-12-11T16:55:55.984Z,97682
2017-12-11T16:58:24.277Z,97691
2017-12-11T17:00:53.772Z,97698
2017-12-11T17:03:22.876Z,97696
2017-12-11T17:05:51.305Z,97696
2017-12-11T17:08:19.528Z,97677
2017-12-11T17:10:47.772Z,97678
2017-12-11T17:13:16.281Z,97688
2017-12-11T17:15:44.543Z,97674
2017-12-11T17:18:13.549Z,97660
2017-12-11T17:20:41.862Z,97678
2017-12-11T17:23:10.120Z,97683
2017-12-11T17:25:38.375Z,97696
2017-12-11T17:28:06.755Z,97701
2017-12-11T17:30:35.004Z,97697
2017-12-11T17:33:03.258Z,97690
2017-12-11T17:35:31.543Z,97685
2017-12-11T17:37:59.932Z,97695
2017-12-11T17:40:28.952Z,97705
2017-12-11T17:42:57.260Z,97717
2017-12-11T17:45:25.543Z,97702
2017-12-11T17:47:53.915Z,97709
2017-12-11T17:50:22.256Z,97703
2017-12-11T17:52:50.530Z,97705
2017-12-11T17:55:18.799Z,97707
2017-12-11T17:57:48.029Z,97707
2017-12-11T18:00:16.289Z,97691
2017-12-11T18:02:44.548Z,97693
2017-12-11T18:05:13.679Z,97692
2017-12-11T18:07:41.934Z,97685
2017-12-11T18:10:10.179Z,97684
2017-12-11T18:12:38.510Z,97702
2017-12-11T18:15:06.927Z,97701
2017-12-11T18:17:35.163Z,97707
2017-12-11T18:20:03.506Z,97706
2017-12-11T18:22:32.626Z,97706
2017-12-11T18:25:00.882Z,97708
2017-12-11T18:27:29.398Z,97707
2017-12-11T18:29:57.666Z,97711
2017-12-11T18:32:25.930Z,97713
2017-12-11T18:34:54.360Z,97718
2017-12-11T18:37:22.667Z,97717
2017-12-11T18:39:50.942Z,97717
2017-12-11T18:42:20.098Z,97711
2017-12-11T18:44:48.426Z,97711
2017-12-11T18:47:17.715Z,97714
2017-12-11T18:49:46.102Z,97710
2017-12-11T18:52:14.819Z,97724
2017-12-11T18:54:43.196Z,97722
2017-12-11T18:57:11.531Z,97724
2017-12-11T18:59:40.152Z,97726
2017-12-11T19:02:08.406Z,97728
2017-12-11T19:04:36.750Z,97739
2017-12-11T19:07:05.072Z,97733
2017-12-11T19:09:33.432Z,97734
2017-12-11T19:12:01.809Z,97752
2017-12-11T19:14:30.089Z,97742
2017-12-11T19:16:58.665Z,97746
2017-12-11T19:19:27.708Z,97736
2017-12-11T19:21:55.977Z,97731
2017-12-11T19:24:24.222Z,97722
2017-12-11T19:26:52.548Z,97721
2017-12-11T19:29:20.860Z,97715
2017-12-11T19:31:49.867Z,97722
2017-12-11T19:34:18.187Z,97740
2017-12-11T19:36:46.464Z,97744
2017-12-11T19:39:15.407Z,97754
2017-12-11T19:41:43.723Z,97753
2017-12-11T19:44:12.082Z,97752
2017-12-11T19:46:41.223Z,97741
2017-12-11T19:49:09.622Z,97740
2017-12-11T19:51:37.883Z,97745
2017-12-11T19:54:06.181Z,97750
2017-12-11T19:56:35.373Z,97744
2017-12-11T19:59:03.643Z,97748
2017-12-11T20:01:32.712Z,97748
2017-12-11T20:04:02.045Z,97744
2017-12-11T20:06:30.325Z,97745
2017-12-11T20:08:58.579Z,97725
2017-12-11T20:11:26.893Z,97713
2017-12-11T20:13:55.114Z,97717
2017-12-11T20:16:23.364Z,97722
2017-12-11T20:18:51.760Z,97715
2017-12-11T20:21:20.796Z,97718
2017-12-11T20:23:49.125Z,97713
2017-12-11T20:26:17.631Z,97709
2017-12-11T20:28:45.959Z,97716
2017-12-11T20:31:14.694Z,97701
2017-12-11T20:33:43.278Z,97685
2017-12-11T20:36:11.705Z,97683
2017-12-11T20:38:39.999Z,97692
2017-12-11T20:41:08.833Z,97685
2017-12-11T20:43:38.011Z,97678
2017-12-11T20:46:08.219Z,97679
2017-12-11T20:48:36.573Z,97682
2017-12-11T20:51:04.894Z,97682
2017-12-11T20:53:34.108Z,97678
2017-12-11T20:56:03.331Z,97675
2017-12-11T20:58:31.592Z,97675
2017-12-11T21:01:00.618Z,97681
2017-12-11T21:03:29.033Z,97659
2017-12-11T21:05:57.280Z,97660
2017-12-11T21:08:25.521Z,97671
2017-12-11T21:10:53.891Z,97673
2017-12-11T21:13:22.214Z,97657
2017-12-11T21:15:50.507Z,97649
2017-12-11T21:18:18.838Z,97651
2017-12-11T21:20:47.137Z,97646
2017-12-11T21:23:15.361Z,97659
2017-12-11T21:25:44.516Z,97664
2017-12-11T21:28:12.847Z,97663
2017-12-11T21:30:41.379Z,97663
2017-12-11T21:33:11.028Z,97645
2017-12-11T21:35:40.065Z,97639
2017-12-11T21:38:08.356Z,97642
2017-12-11T21:40:36.824Z,97643
2017-12-11T21:43:05.098Z,97649
2017-12-11T21:45:33.351Z,97649
2017-12-11T21:48:01.792Z,97654
2017-12-11T21:50:32.065Z,97655
2017-12-11T21:53:00.344Z,97665
2017-12-11T21:55:28.595Z,97656
2017-12-11T21:57:56.843Z,97656
2017-12-11T22:00:25.909Z,97651
2017-12-11T22:02:54.151Z,97662
2017-12-11T22:05:22.387Z,97649
2017-12-11T22:07:50.677Z,97656
2017-12-11T22:10:19.835Z,97658
2017-12-11T22:12:48.100Z,97664
2017-12-11T22:15:16.334Z,97672
2017-12-11T22:17:44.635Z,97674
2017-12-11T22:20:12.916Z,97681
2017-12-11T22:22:41.184Z,97667
2017-12-11T22:25:09.582Z,97681
2017-12-11T22:27:38.789Z,97654
2017-12-11T22:30:07.026Z,97659
2017-12-11T22:32:35.433Z,97659
2017-12-11T22:35:03.691Z,97660
2017-12-11T22:37:31.946Z,97656
2017-12-11T22:40:00.269Z,97653
2017-12-11T22:42:28.524Z,97661
2017-12-11T22:44:56.802Z,97665
2017-12-11T22:47:25.904Z,97668
2017-12-11T22:49:54.154Z,97670
2017-12-11T22:52:22.394Z,97658
2017-12-11T22:54:50.681Z,97653
2017-12-11T22:57:19.679Z,97670
2017-12-11T22:59:48.832Z,97676
2017-12-11T23:02:17.102Z,97696
2017-12-11T23:04:45.329Z,97699
2017-12-11T23:07:14.497Z,97695
2017-12-11T23:09:42.837Z,97694
2017-12-11T23:12:11.065Z,97696
2017-12-11T23:14:40.333Z,97722
2017-12-11T23:17:08.566Z,97729
2017-12-11T23:19:36.830Z,97724
2017-12-11T23:22:05.286Z,97729
2017-12-11T23:24:33.554Z,97733
2017-12-11T23:27:01.797Z,97751
2017-12-11T23:29:30.256Z,97746
2017-12-11T23:31:58.489Z,97755
2017-12-11T23:34:26.772Z,97759
2017-12-11T23:36:55.079Z,97751
2017-12-11T23:39:23.308Z,97755
2017-12-11T23:41:51.538Z,97751
2017-12-11T23:44:19.957Z,97734
2017-12-11T23:46:48.184Z,97734
2017-12-11T23:49:16.436Z,97730
2017-12-11T23:51:45.524Z,97726
2017-12-11T23:54:32.326Z,97721
2017-12-11T23:57:00.640Z,97724
2017-12-11T23:59:28.897Z,97745
